Time;durP1;ratioP1;P1;durP2;ratioP2;P2;SDS_P1;SDS_P2;PMS_P1;PMS_P2;Temp;Humidity;BMP_temperature;BMP_pressure;BME280_temperature;BME280_humidity;BME280_pressure;Samples;Min_cycle;Max_cycle;Signal;HPM_P1;HPM_P2
2023/02/18 00:01:53;;;;;;;;;;;;;;;;;;5136939;27;19958;-66
2023/02/18 00:04:19;;;;;;;;;;;;;;;;;;5136508;27;20337;-66
2023/02/18 00:06:45;;;;;;;;;;;;;;;;;;5136824;27;19982;-67
2023/02/18 00:09:11;;;;;;;;;;;;;;;;;;5136535;27;20304;-66
2023/02/18 00:11:37;;;;;;;;;;;;;;;;;;5136272;27;20510;-67
2023/02/18 00:14:03;;;;;;;;;;;;;;;;;;5136373;27;20327;-66
2023/02/18 00:16:29;;;;;;;;;;;;;;;;;;5136664;27;19948;-66
2023/02/18 00:18:55;;;;;;;;;;;;;;;;;;5136346;27;19946;-66
2023/02/18 00:21:21;;;;;;;;;;;;;;;;;;5136594;27;19951;-66
2023/02/18 00:23:46;;;;;;;;;;;;;;;;;;5136438;27;19981;-66
2023/02/18 00:26:12;;;;;;;;;;;;;;;;;;5136818;27;19955;-66
2023/02/18 00:28:38;;;;;;;;;;;;;;;;;;5136402;27;19950;-67
2023/02/18 00:31:04;;;;;;;;;;;;;;;;;;5136377;27;20421;-66
2023/02/18 00:33:30;;;;;;;;;;;;;;;;;;5135800;27;19989;-66
2023/02/18 00:35:56;;;;;;;;;;;;;;;;;;5135608;27;20338;-66
2023/02/18 00:38:22;;;;;;;;;;;;;;;;;;5135940;27;19948;-66
2023/02/18 00:40:48;;;;;;;;;;;;;;;;;;5136127;27;20326;-66
2023/02/18 00:43:14;;;;;;;;;;;;;;;;;;5135765;27;19975;-67
2023/02/18 00:45:39;;;;;;;;;;;;;;;;;;5136086;27;19958;-66
2023/02/18 00:48:05;;;;;;;;;;;;;;;;;;5135751;27;20356;-67
2023/02/18 00:50:31;;;;;;;;;;;;;;;;;;5135737;27;20009;-67
2023/02/18 00:52:57;;;;;;;;;;;;;;;;;;5135927;27;20038;-66
2023/02/18 00:55:23;;;;;;;;;;;;;;;;;;5135594;27;19956;-67
2023/02/18 00:57:49;;;;;;;;;;;;;;;;;;5136120;27;20048;-66
2023/02/18 01:00:15;;;;;;;;;;;;;;;;;;5117099;27;19960;-66
2023/02/18 01:02:41;;;;;;;;;;;;;;;;;;5135450;27;19991;-66
2023/02/18 01:05:06;;;;;;;;;;;;;;;;;;5135704;27;19944;-66
2023/02/18 01:07:32;;;;;;;;;;;;;;;;;;5135382;27;19999;-66
2023/02/18 01:09:58;;;;;;;;;;;;;;;;;;5135320;27;20075;-67
2023/02/18 01:12:24;;;;;;;;;;;;;;;;;;5135281;27;19958;-66
2023/02/18 01:14:50;;;;;;;;;;;;;;;;;;5135182;27;20012;-66
2023/02/18 01:17:16;;;;;;;;;;;;;;;;;;5135442;27;19954;-66
2023/02/18 01:19:42;;;;;;;;;;;;;;;;;;5135439;27;19951;-66
2023/02/18 01:22:08;;;;;;;;;;;;;;;;;;5135438;27;19957;-66
2023/02/18 01:24:33;;;;;;;;;;;;;;;;;;5135006;27;20500;-66
2023/02/18 01:26:59;;;;;;;;;;;;;;;;;;5135353;27;19950;-66
2023/02/18 01:29:25;;;;;;;;;;;;;;;;;;5135027;27;19951;-66
2023/02/18 01:31:51;;;;;;;;;;;;;;;;;;5135027;27;19947;-66
2023/02/18 01:34:17;;;;;;;;;;;;;;;;;;5135208;27;19996;-66
2023/02/18 01:36:43;;;;;;;;;;;;;;;;;;5135243;27;20003;-67
2023/02/18 01:39:09;;;;;;;;;;;;;;;;;;5134901;27;19954;-67
2023/02/18 01:41:35;;;;;;;;;;;;;;;;;;5135154;27;19944;-66
2023/02/18 01:44:01;;;;;;;;;;;;;;;;;;5135013;27;20296;-66
2023/02/18 01:46:26;;;;;;;;;;;;;;;;;;5135367;27;19997;-66
2023/02/18 01:48:52;;;;;;;;;;;;;;;;;;5134746;27;20363;-66
2023/02/18 01:51:18;;;;;;;;;;;;;;;;;;5134739;27;19949;-66
2023/02/18 01:53:44;;;;;;;;;;;;;;;;;;5116303;28;19977;-67
2023/02/18 01:56:10;;;;;;;;;;;;;;;;;;5134708;28;19942;-66
2023/02/18 01:58:37;;;;;;;;;;;;;;;;;;5134939;28;19992;-66
2023/02/18 02:01:03;;;;;;;;;;;;;;;;;;5135307;28;20413;-66
2023/02/18 02:03:29;;;;;;;;;;;;;;;;;;5134546;28;19970;-66
2023/02/18 02:05:55;;;;;;;;;;;;;;;;;;5134904;28;19949;-66
2023/02/18 02:08:20;;;;;;;;;;;;;;;;;;5134581;28;19948;-67
2023/02/18 02:10:46;;;;;;;;;;;;;;;;;;5134707;28;20502;-66
2023/02/18 02:13:12;;;;;;;;;;;;;;;;;;5134477;28;19950;-66
2023/02/18 02:15:38;;;;;;;;;;;;;;;;;;5134826;28;20425;-66
2023/02/18 02:18:04;;;;;;;;;;;;;;;;;;5134806;28;19951;-66
2023/02/18 02:20:30;;;;;;;;;;;;;;;;;;5134752;28;20314;-66
2023/02/18 02:22:56;;;;;;;;;;;;;;;;;;5134945;28;19969;-66
2023/02/18 02:25:22;;;;;;;;;;;;;;;;;;5134385;28;19973;-66
2023/02/18 02:27:47;;;;;;;;;;;;;;;;;;5134420;28;20036;-66
2023/02/18 02:30:13;;;;;;;;;;;;;;;;;;5134680;28;19958;-66
2023/02/18 02:32:39;;;;;;;;;;;;;;;;;;5134650;28;20462;-66
2023/02/18 02:35:05;;;;;;;;;;;;;;;;;;5134600;28;20029;-66
2023/02/18 02:37:31;;;;;;;;;;;;;;;;;;5134289;28;19958;-67
2023/02/18 02:39:57;;;;;;;;;;;;;;;;;;5134291;28;19945;-66
2023/02/18 02:42:23;;;;;;;;;;;;;;;;;;5134506;28;20004;-66
2023/02/18 02:44:49;;;;;;;;;;;;;;;;;;5134511;28;20048;-66
2023/02/18 02:47:15;;;;;;;;;;;;;;;;;;5134213;28;19949;-66
2023/02/18 02:49:40;;;;;;;;;;;;;;;;;;5134229;28;20003;-67
2023/02/18 02:52:06;;;;;;;;;;;;;;;;;;5134424;28;19945;-67
2023/02/18 02:54:32;;;;;;;;;;;;;;;;;;5134365;28;19967;-66
2023/02/18 02:56:58;;;;;;;;;;;;;;;;;;5134275;27;20037;-66
2023/02/18 02:59:24;;;;;;;;;;;;;;;;;;5137908;27;19954;-66
2023/02/18 03:01:50;;;;;;;;;;;;;;;;;;5138426;27;20383;-66
2023/02/18 03:04:16;;;;;;;;;;;;;;;;;;5138046;27;20060;-66
2023/02/18 03:06:42;;;;;;;;;;;;;;;;;;5137683;27;20432;-66
2023/02/18 03:09:07;;;;;;;;;;;;;;;;;;5137711;27;19957;-67
2023/02/18 03:11:33;;;;;;;;;;;;;;;;;;5137265;27;20378;-66
2023/02/18 03:13:59;;;;;;;;;;;;;;;;;;5137708;27;20043;-66
2023/02/18 03:16:27;;;;;;;;;;;;;;;;;;5136814;27;21403;-67
2023/02/18 03:18:53;;;;;;;;;;;;;;;;;;5138122;27;19954;-66
2023/02/18 03:21:19;;;;;;;;;;;;;;;;;;5137788;27;19950;-66
2023/02/18 03:23:45;;;;;;;;;;;;;;;;;;5138179;27;20421;-66
2023/02/18 03:26:10;;;;;;;;;;;;;;;;;;5137397;27;20033;-67
2023/02/18 03:28:36;;;;;;;;;;;;;;;;;;5137644;27;19945;-66
2023/02/18 03:31:02;;;;;;;;;;;;;;;;;;5137279;27;20453;-66
2023/02/18 03:33:28;;;;;;;;;;;;;;;;;;5137498;27;19998;-67
2023/02/18 03:35:54;;;;;;;;;;;;;;;;;;5137193;27;19972;-66
2023/02/18 03:38:20;;;;;;;;;;;;;;;;;;5137168;27;19951;-67
2023/02/18 03:40:46;;;;;;;;;;;;;;;;;;5137415;27;19947;-66
2023/02/18 03:43:12;;;;;;;;;;;;;;;;;;5136970;27;19975;-66
2023/02/18 03:45:38;;;;;;;;;;;;;;;;;;5137562;27;19951;-66
2023/02/18 03:48:03;;;;;;;;;;;;;;;;;;5136982;27;19990;-67
2023/02/18 03:50:29;;;;;;;;;;;;;;;;;;5137228;27;20006;-67
2023/02/18 03:52:55;;;;;;;;;;;;;;;;;;5136848;27;20044;-66
2023/02/18 03:55:21;;;;;;;;;;;;;;;;;;5137109;27;19943;-66
2023/02/18 03:57:47;;;;;;;;;;;;;;;;;;5137042;27;19950;-66
2023/02/18 04:00:13;;;;;;;;;;;;;;;;;;5137024;27;20007;-66
2023/02/18 04:02:39;;;;;;;;;;;;;;;;;;5136632;27;19943;-67
2023/02/18 04:05:05;;;;;;;;;;;;;;;;;;5136694;27;20393;-66
2023/02/18 04:07:31;;;;;;;;;;;;;;;;;;5136928;27;19949;-66
2023/02/18 04:09:57;;;;;;;;;;;;;;;;;;5135312;27;20030;-66
2023/02/18 04:12:23;;;;;;;;;;;;;;;;;;5136496;27;19955;-66
2023/02/18 04:14:49;;;;;;;;;;;;;;;;;;5136965;27;19972;-67
2023/02/18 04:17:15;;;;;;;;;;;;;;;;;;5136406;27;19944;-66
2023/02/18 04:19:42;;;;;;;;;;;;;;;;;;5136347;27;19957;-66
2023/02/18 04:22:08;;;;;;;;;;;;;;;;;;5117617;27;19953;-66
2023/02/18 04:24:34;;;;;;;;;;;;;;;;;;5136464;27;19977;-66
2023/02/18 04:26:59;;;;;;;;;;;;;;;;;;5136198;27;20403;-66
2023/02/18 04:29:25;;;;;;;;;;;;;;;;;;5136156;27;19949;-67
2023/02/18 04:31:51;;;;;;;;;;;;;;;;;;5136179;27;20375;-66
2023/02/18 04:34:17;;;;;;;;;;;;;;;;;;5136353;27;19953;-66
2023/02/18 04:36:43;;;;;;;;;;;;;;;;;;5136239;27;19947;-67
2023/02/18 04:39:09;;;;;;;;;;;;;;;;;;5135962;27;19957;-67
2023/02/18 04:41:35;;;;;;;;;;;;;;;;;;5136194;27;19950;-66
2023/02/18 04:44:01;;;;;;;;;;;;;;;;;;5136077;27;20453;-66
2023/02/18 04:46:27;;;;;;;;;;;;;;;;;;5136368;27;19988;-66
2023/02/18 04:48:52;;;;;;;;;;;;;;;;;;5135745;27;19947;-66
2023/02/18 04:51:18;;;;;;;;;;;;;;;;;;5136302;27;20466;-67
2023/02/18 04:53:45;;;;;;;;;;;;;;;;;;5135961;27;19946;-66
2023/02/18 04:56:11;;;;;;;;;;;;;;;;;;5135973;27;20316;-66
2023/02/18 04:58:36;;;;;;;;;;;;;;;;;;5135844;27;20045;-66
2023/02/18 05:01:02;;;;;;;;;;;;;;;;;;5135557;27;19987;-66
2023/02/18 05:03:28;;;;;;;;;;;;;;;;;;5136009;27;20321;-66
2023/02/18 05:05:54;;;;;;;;;;;;;;;;;;5135392;27;19954;-66
2023/02/18 05:08:20;;;;;;;;;;;;;;;;;;5135698;27;19949;-67
2023/02/18 05:10:46;;;;;;;;;;;;;;;;;;5135130;27;19988;-67
2023/02/18 05:13:12;;;;;;;;;;;;;;;;;;5135809;27;19956;-67
2023/02/18 05:15:38;;;;;;;;;;;;;;;;;;5135269;27;19999;-66
2023/02/18 05:18:04;;;;;;;;;;;;;;;;;;5135507;27;19943;-66
2023/02/18 05:20:29;;;;;;;;;;;;;;;;;;5135208;27;20308;-66
2023/02/18 05:22:55;;;;;;;;;;;;;;;;;;5135667;27;19960;-66
2023/02/18 05:25:21;;;;;;;;;;;;;;;;;;5135065;27;19957;-67
2023/02/18 05:27:47;;;;;;;;;;;;;;;;;;5135065;27;20026;-67
2023/02/18 05:30:13;;;;;;;;;;;;;;;;;;5135334;27;19979;-66
2023/02/18 05:32:39;;;;;;;;;;;;;;;;;;5135224;27;20349;-66
2023/02/18 05:35:05;;;;;;;;;;;;;;;;;;5134991;27;20046;-66
2023/02/18 05:37:31;;;;;;;;;;;;;;;;;;5135194;27;19948;-67
2023/02/18 05:39:57;;;;;;;;;;;;;;;;;;5134895;27;20405;-66
2023/02/18 05:42:23;;;;;;;;;;;;;;;;;;5135141;27;19976;-66
2023/02/18 05:44:49;;;;;;;;;;;;;;;;;;5135038;27;20302;-66
2023/02/18 05:47:14;;;;;;;;;;;;;;;;;;5135580;27;19962;-66
2023/02/18 05:49:41;;;;;;;;;;;;;;;;;;5134812;27;19951;-66
2023/02/18 05:52:07;;;;;;;;;;;;;;;;;;5116162;28;19950;-66
2023/02/18 05:54:33;;;;;;;;;;;;;;;;;;5134756;27;20046;-66
2023/02/18 05:56:59;;;;;;;;;;;;;;;;;;5135283;27;20450;-66
2023/02/18 05:59:25;;;;;;;;;;;;;;;;;;5134726;28;19967;-67
2023/02/18 06:01:51;;;;;;;;;;;;;;;;;;5135282;28;20385;-66
2023/02/18 06:04:17;;;;;;;;;;;;;;;;;;5134550;28;20043;-66
2023/02/18 06:06:43;;;;;;;;;;;;;;;;;;5134897;28;19957;-66
2023/02/18 06:09:08;;;;;;;;;;;;;;;;;;5134570;28;20464;-65
2023/02/18 06:11:34;;;;;;;;;;;;;;;;;;5134138;28;20029;-66
2023/02/18 06:14:00;;;;;;;;;;;;;;;;;;5134792;28;20333;-66
2023/02/18 06:16:26;;;;;;;;;;;;;;;;;;5134516;28;19955;-66
2023/02/18 06:18:52;;;;;;;;;;;;;;;;;;5134768;28;19955;-66
2023/02/18 06:21:18;;;;;;;;;;;;;;;;;;5134772;28;19948;-66
2023/02/18 06:23:44;;;;;;;;;;;;;;;;;;5134669;28;19967;-66
2023/02/18 06:26:10;;;;;;;;;;;;;;;;;;5134444;28;19957;-67
2023/02/18 06:28:36;;;;;;;;;;;;;;;;;;5134433;28;19943;-66
2023/02/18 06:31:02;;;;;;;;;;;;;;;;;;5134387;28;19977;-66
2023/02/18 06:33:27;;;;;;;;;;;;;;;;;;5137332;27;20425;-66
2023/02/18 06:35:53;;;;;;;;;;;;;;;;;;5138389;27;20045;-66
2023/02/18 06:38:19;;;;;;;;;;;;;;;;;;5138623;27;19957;-66
2023/02/18 06:40:45;;;;;;;;;;;;;;;;;;5138570;27;19956;-66
2023/02/18 06:43:11;;;;;;;;;;;;;;;;;;5138202;27;20018;-67
2023/02/18 06:45:37;;;;;;;;;;;;;;;;;;5139050;27;19957;-66
2023/02/18 06:48:03;;;;;;;;;;;;;;;;;;5138159;27;20033;-67
2023/02/18 06:50:29;;;;;;;;;;;;;;;;;;5138695;27;20374;-66
2023/02/18 06:52:54;;;;;;;;;;;;;;;;;;5138363;27;19998;-66
2023/02/18 06:55:20;;;;;;;;;;;;;;;;;;5138016;27;20430;-66
2023/02/18 06:57:46;;;;;;;;;;;;;;;;;;5138255;27;19997;-66
2023/02/18 07:00:12;;;;;;;;;;;;;;;;;;5137934;27;20348;-66
2023/02/18 07:02:38;;;;;;;;;;;;;;;;;;5138096;27;19949;-66
2023/02/18 07:05:04;;;;;;;;;;;;;;;;;;5138114;27;20397;-66
2023/02/18 07:07:30;;;;;;;;;;;;;;;;;;5137804;27;19985;-66
2023/02/18 07:09:56;;;;;;;;;;;;;;;;;;5137538;27;20060;-66
2023/02/18 07:12:22;;;;;;;;;;;;;;;;;;5138228;27;20321;-66
2023/02/18 07:14:47;;;;;;;;;;;;;;;;;;5137858;27;20061;-66
2023/02/18 07:17:13;;;;;;;;;;;;;;;;;;5137620;27;19992;-67
2023/02/18 07:19:39;;;;;;;;;;;;;;;;;;5138147;27;20391;-66
2023/02/18 07:22:05;;;;;;;;;;;;;;;;;;5137779;27;19955;-66
2023/02/18 07:24:31;;;;;;;;;;;;;;;;;;5137640;27;19970;-67
2023/02/18 07:26:57;;;;;;;;;;;;;;;;;;5137402;27;20000;-66
2023/02/18 07:29:23;;;;;;;;;;;;;;;;;;5137351;27;20449;-66
2023/02/18 07:31:49;;;;;;;;;;;;;;;;;;5137600;27;19953;-66
2023/02/18 07:34:15;;;;;;;;;;;;;;;;;;5137513;27;20358;-66
2023/02/18 07:36:41;;;;;;;;;;;;;;;;;;5137779;27;19958;-66
2023/02/18 07:39:07;;;;;;;;;;;;;;;;;;5137192;27;19951;-67
2023/02/18 07:41:33;;;;;;;;;;;;;;;;;;5137379;27;19956;-66
2023/02/18 07:43:59;;;;;;;;;;;;;;;;;;5136914;27;20065;-67
2023/02/18 07:46:25;;;;;;;;;;;;;;;;;;5137039;27;19986;-66
2023/02/18 07:48:51;;;;;;;;;;;;;;;;;;5136942;27;19957;-67
2023/02/18 07:51:17;;;;;;;;;;;;;;;;;;5118165;27;19958;-66
2023/02/18 07:53:43;;;;;;;;;;;;;;;;;;5137142;27;19952;-67
2023/02/18 07:56:09;;;;;;;;;;;;;;;;;;5136776;27;20295;-66
2023/02/18 07:58:35;;;;;;;;;;;;;;;;;;5136757;27;19989;-67
2023/02/18 08:01:01;;;;;;;;;;;;;;;;;;5118075;27;20334;-66
2023/02/18 08:03:27;;;;;;;;;;;;;;;;;;5136627;27;19971;-66
2023/02/18 08:05:53;;;;;;;;;;;;;;;;;;5136653;27;20008;-66
2023/02/18 08:08:21;;;;;;;;;;;;;;;;;;5136644;27;19951;-66
2023/02/18 08:10:47;;;;;;;;;;;;;;;;;;5136630;27;19987;-67
2023/02/18 08:13:13;;;;;;;;;;;;;;;;;;5136707;27;19973;-66
2023/02/18 08:15:39;;;;;;;;;;;;;;;;;;5137029;27;20403;-66
2023/02/18 08:18:05;;;;;;;;;;;;;;;;;;5136774;27;19951;-66
2023/02/18 08:20:31;;;;;;;;;;;;;;;;;;5136425;27;20004;-67
2023/02/18 08:22:57;;;;;;;;;;;;;;;;;;5136225;27;19962;-67
2023/02/18 08:25:23;;;;;;;;;;;;;;;;;;5136528;27;19953;-66
2023/02/18 08:27:49;;;;;;;;;;;;;;;;;;5136478;27;19949;-66
2023/02/18 08:30:14;;;;;;;;;;;;;;;;;;5136145;27;19947;-66
2023/02/18 08:32:40;;;;;;;;;;;;;;;;;;5136410;27;19999;-66
2023/02/18 08:35:06;;;;;;;;;;;;;;;;;;5136054;27;20039;-66
2023/02/18 08:37:32;;;;;;;;;;;;;;;;;;5136045;27;20044;-67
2023/02/18 08:39:58;;;;;;;;;;;;;;;;;;5135987;27;20399;-66
2023/02/18 08:42:24;;;;;;;;;;;;;;;;;;5135914;27;19946;-66
2023/02/18 08:44:50;;;;;;;;;;;;;;;;;;5136387;27;20325;-67
2023/02/18 08:47:16;;;;;;;;;;;;;;;;;;5136094;27;20015;-67
2023/02/18 08:49:42;;;;;;;;;;;;;;;;;;5135745;27;20444;-66
2023/02/18 08:52:08;;;;;;;;;;;;;;;;;;5135994;27;19950;-66
2023/02/18 08:54:33;;;;;;;;;;;;;;;;;;5135255;27;19958;-68
2023/02/18 08:56:59;;;;;;;;;;;;;;;;;;5135478;27;19963;-66
2023/02/18 08:59:25;;;;;;;;;;;;;;;;;;5135915;27;19957;-66
2023/02/18 09:01:51;;;;;;;;;;;;;;;;;;5135552;27;20375;-66
2023/02/18 09:04:17;;;;;;;;;;;;;;;;;;5135404;27;19963;-66
2023/02/18 09:06:45;;;;;;;;;;;;;;;;;;5136037;27;19955;-66
2023/02/18 09:09:11;;;;;;;;;;;;;;;;;;5117804;27;20379;-67
2023/02/18 09:11:37;;;;;;;;;;;;;;;;;;5135086;27;19986;-68
2023/02/18 09:14:03;;;;;;;;;;;;;;;;;;5135508;27;19974;-68
2023/02/18 09:16:29;;;;;;;;;;;;;;;;;;5135861;27;19948;-67
2023/02/18 09:18:54;;;;;;;;;;;;;;;;;;5135504;27;19956;-66
2023/02/18 09:21:21;;;;;;;;;;;;;;;;;;5135770;27;20401;-66
2023/02/18 09:23:47;;;;;;;;;;;;;;;;;;5135085;27;19969;-68
2023/02/18 09:26:13;;;;;;;;;;;;;;;;;;5135094;27;20464;-70
2023/02/18 09:28:39;;;;;;;;;;;;;;;;;;5135341;27;19951;-68
2023/02/18 09:31:05;;;;;;;;;;;;;;;;;;5135086;27;19947;-68
2023/02/18 09:33:31;;;;;;;;;;;;;;;;;;5135255;27;20414;-70
2023/02/18 09:35:56;;;;;;;;;;;;;;;;;;5134964;27;19950;-68
2023/02/18 09:38:22;;;;;;;;;;;;;;;;;;5135137;27;19949;-69
2023/02/18 09:40:48;;;;;;;;;;;;;;;;;;5134845;27;20318;-70
2023/02/18 09:43:14;;;;;;;;;;;;;;;;;;5134895;27;20426;-68
2023/02/18 09:45:40;;;;;;;;;;;;;;;;;;5134898;27;19988;-69
2023/02/18 09:48:06;;;;;;;;;;;;;;;;;;5135103;27;19955;-69
2023/02/18 09:50:32;;;;;;;;;;;;;;;;;;5134706;27;19998;-70
2023/02/18 09:52:58;;;;;;;;;;;;;;;;;;5134653;27;19956;-69
2023/02/18 09:55:24;;;;;;;;;;;;;;;;;;5134973;27;19953;-68
2023/02/18 09:57:50;;;;;;;;;;;;;;;;;;5134990;27;19948;-69
2023/02/18 10:00:16;;;;;;;;;;;;;;;;;;5134963;27;19954;-69
2023/02/18 10:02:42;;;;;;;;;;;;;;;;;;5134628;28;19953;-71
2023/02/18 10:05:08;;;;;;;;;;;;;;;;;;5134678;28;20364;-70
2023/02/18 10:07:33;;;;;;;;;;;;;;;;;;5135798;27;19983;-69
2023/02/18 10:09:59;;;;;;;;;;;;;;;;;;5138905;27;20351;-69
2023/02/18 10:12:25;;;;;;;;;;;;;;;;;;5139202;27;20000;-69
2023/02/18 10:14:51;;;;;;;;;;;;;;;;;;5138687;27;19967;-69
2023/02/18 10:17:17;;;;;;;;;;;;;;;;;;5138753;27;19943;-69
2023/02/18 10:19:43;;;;;;;;;;;;;;;;;;5139215;27;20476;-69
2023/02/18 10:22:09;;;;;;;;;;;;;;;;;;5138980;27;19950;-70
2023/02/18 10:24:35;;;;;;;;;;;;;;;;;;5138557;27;20428;-70
2023/02/18 10:27:00;;;;;;;;;;;;;;;;;;5138591;27;19989;-71
2023/02/18 10:29:27;;;;;;;;;;;;;;;;;;5138470;27;20355;-71
2023/02/18 10:31:52;;;;;;;;;;;;;;;;;;5138348;27;19950;-70
2023/02/18 10:34:18;;;;;;;;;;;;;;;;;;5138793;27;20425;-72
2023/02/18 10:36:44;;;;;;;;;;;;;;;;;;5138610;27;19949;-70
2023/02/18 10:39:10;;;;;;;;;;;;;;;;;;5138760;27;19998;-74
2023/02/18 10:41:36;;;;;;;;;;;;;;;;;;5138525;27;19950;-69
2023/02/18 10:44:02;;;;;;;;;;;;;;;;;;5138785;27;19976;-69
2023/02/18 10:46:28;;;;;;;;;;;;;;;;;;5138901;27;19952;-71
2023/02/18 10:48:54;;;;;;;;;;;;;;;;;;5138092;27;19945;-70
2023/02/18 10:51:20;;;;;;;;;;;;;;;;;;5138378;27;19950;-70
2023/02/18 10:53:45;;;;;;;;;;;;;;;;;;5138193;27;19987;-71
2023/02/18 10:56:11;;;;;;;;;;;;;;;;;;5138364;27;19952;-72
2023/02/18 10:58:38;;;;;;;;;;;;;;;;;;5119483;27;19986;-70
2023/02/18 11:01:04;;;;;;;;;;;;;;;;;;5119183;27;20003;-71
2023/02/18 11:03:30;;;;;;;;;;;;;;;;;;5119584;27;19973;-69
2023/02/18 11:05:56;;;;;;;;;;;;;;;;;;5138557;27;19954;-68
2023/02/18 11:08:21;;;;;;;;;;;;;;;;;;5138433;27;19974;-68
2023/02/18 11:10:47;;;;;;;;;;;;;;;;;;5137744;27;20000;-69
2023/02/18 11:13:13;;;;;;;;;;;;;;;;;;5136634;27;20053;-69
2023/02/18 11:15:39;;;;;;;;;;;;;;;;;;5135033;27;19943;-68
2023/02/18 11:18:05;;;;;;;;;;;;;;;;;;5136253;27;20413;-69
2023/02/18 11:20:31;;;;;;;;;;;;;;;;;;5137407;27;19955;-69
2023/02/18 11:22:57;;;;;;;;;;;;;;;;;;5136950;27;20422;-69
2023/02/18 11:25:23;;;;;;;;;;;;;;;;;;5136955;27;19953;-69
2023/02/18 11:27:49;;;;;;;;;;;;;;;;;;5137137;27;19951;-68
2023/02/18 11:30:14;;;;;;;;;;;;;;;;;;5137664;27;19963;-69
2023/02/18 11:32:40;;;;;;;;;;;;;;;;;;5137325;27;19943;-69
2023/02/18 11:35:06;;;;;;;;;;;;;;;;;;5137588;27;20038;-68
2023/02/18 11:37:32;;;;;;;;;;;;;;;;;;5137280;27;20419;-69
2023/02/18 11:39:58;;;;;;;;;;;;;;;;;;5137212;27;19951;-69
2023/02/18 11:42:25;;;;;;;;;;;;;;;;;;5137743;27;20350;-69
2023/02/18 11:44:51;;;;;;;;;;;;;;;;;;5136990;27;20346;-69
2023/02/18 11:47:18;;;;;;;;;;;;;;;;;;5136953;27;19954;-69
2023/02/18 11:49:44;;;;;;;;;;;;;;;;;;5137004;27;19954;-69
2023/02/18 11:52:10;;;;;;;;;;;;;;;;;;5137518;27;20003;-69
2023/02/18 11:54:35;;;;;;;;;;;;;;;;;;5136891;27;19946;-69
2023/02/18 11:57:01;;;;;;;;;;;;;;;;;;5137408;27;19946;-68
2023/02/18 11:59:27;;;;;;;;;;;;;;;;;;5137128;27;19953;-70
2023/02/18 12:01:53;;;;;;;;;;;;;;;;;;5136786;27;20462;-68
2023/02/18 12:04:19;;;;;;;;;;;;;;;;;;5136670;27;19977;-69
2023/02/18 12:06:45;;;;;;;;;;;;;;;;;;5137278;27;20456;-69
2023/02/18 12:09:11;;;;;;;;;;;;;;;;;;5118250;27;20405;-70
2023/02/18 12:11:37;;;;;;;;;;;;;;;;;;5136148;27;19985;-69
2023/02/18 12:14:03;;;;;;;;;;;;;;;;;;5136602;27;19976;-70
2023/02/18 12:16:29;;;;;;;;;;;;;;;;;;5137039;27;19950;-68
2023/02/18 12:18:55;;;;;;;;;;;;;;;;;;5136440;27;19950;-68
2023/02/18 12:21:21;;;;;;;;;;;;;;;;;;5137253;27;20403;-69
2023/02/18 12:23:47;;;;;;;;;;;;;;;;;;5136277;27;20009;-69
2023/02/18 12:26:13;;;;;;;;;;;;;;;;;;5136233;27;19990;-69
2023/02/18 12:28:39;;;;;;;;;;;;;;;;;;5136259;27;19974;-69
2023/02/18 12:31:04;;;;;;;;;;;;;;;;;;5135188;27;19976;-69
2023/02/18 12:33:30;;;;;;;;;;;;;;;;;;5136712;27;19950;-68
2023/02/18 12:35:56;;;;;;;;;;;;;;;;;;5135981;27;19956;-69
2023/02/18 12:38:22;;;;;;;;;;;;;;;;;;5136597;27;20014;-69
2023/02/18 12:40:48;;;;;;;;;;;;;;;;;;5135990;27;19949;-69
2023/02/18 12:43:14;;;;;;;;;;;;;;;;;;5136159;27;19981;-69
2023/02/18 12:45:40;;;;;;;;;;;;;;;;;;5135853;27;19946;-70
2023/02/18 12:48:06;;;;;;;;;;;;;;;;;;5136129;27;20005;-68
2023/02/18 12:50:32;;;;;;;;;;;;;;;;;;5136090;27;19944;-70
2023/02/18 12:52:57;;;;;;;;;;;;;;;;;;5135735;27;19951;-70
2023/02/18 12:55:23;;;;;;;;;;;;;;;;;;5136263;27;20390;-69
2023/02/18 12:57:49;;;;;;;;;;;;;;;;;;5135968;27;20045;-69
2023/02/18 13:00:15;;;;;;;;;;;;;;;;;;5135627;27;20460;-69
2023/02/18 13:02:41;;;;;;;;;;;;;;;;;;5135879;27;19944;-69
2023/02/18 13:05:07;;;;;;;;;;;;;;;;;;5135418;27;20459;-69
2023/02/18 13:07:33;;;;;;;;;;;;;;;;;;5135497;27;19986;-70
2023/02/18 13:09:59;;;;;;;;;;;;;;;;;;5135419;27;20030;-69
2023/02/18 13:12:25;;;;;;;;;;;;;;;;;;5135959;27;19950;-68
2023/02/18 13:14:54;;;;;;;;;;;;;;;;;;5135300;27;19970;-69
2023/02/18 13:17:20;;;;;;;;;;;;;;;;;;5135617;27;20035;-69
2023/02/18 13:19:47;;;;;;;;;;;;;;;;;;5135508;27;19981;-69
2023/02/18 13:22:13;;;;;;;;;;;;;;;;;;5116579;27;19947;-69
2023/02/18 13:24:39;;;;;;;;;;;;;;;;;;5135444;27;19993;-70
2023/02/18 13:27:05;;;;;;;;;;;;;;;;;;5135144;27;20002;-69
2023/02/18 13:29:31;;;;;;;;;;;;;;;;;;5135151;27;19947;-69
2023/02/18 13:31:56;;;;;;;;;;;;;;;;;;5116471;27;19955;-69
2023/02/18 13:34:22;;;;;;;;;;;;;;;;;;5135030;27;20421;-69
2023/02/18 13:36:48;;;;;;;;;;;;;;;;;;5135026;27;19957;-69
2023/02/18 13:39:18;;;;;;;;;;;;;;;;;;5135535;27;20337;-68
2023/02/18 13:41:44;;;;;;;;;;;;;;;;;;5134740;27;20412;-69
2023/02/18 13:44:10;;;;;;;;;;;;;;;;;;5135367;27;19961;-68
2023/02/18 13:46:36;;;;;;;;;;;;;;;;;;5134859;27;19949;-69
2023/02/18 13:49:02;;;;;;;;;;;;;;;;;;5134831;27;19953;-68
2023/02/18 13:51:28;;;;;;;;;;;;;;;;;;5134770;27;19953;-70
2023/02/18 13:53:54;;;;;;;;;;;;;;;;;;5134926;27;20002;-69
2023/02/18 13:56:20;;;;;;;;;;;;;;;;;;5134667;27;19976;-69
2023/02/18 13:58:46;;;;;;;;;;;;;;;;;;5135247;27;19950;-68
2023/02/18 14:01:12;;;;;;;;;;;;;;;;;;5134962;27;19947;-69
2023/02/18 14:03:38;;;;;;;;;;;;;;;;;;5134816;28;19982;-69
2023/02/18 14:06:03;;;;;;;;;;;;;;;;;;5135220;28;20412;-68
2023/02/18 14:08:29;;;;;;;;;;;;;;;;;;5134619;28;19951;-69
2023/02/18 14:10:55;;;;;;;;;;;;;;;;;;5134438;28;19994;-68
2023/02/18 14:13:21;;;;;;;;;;;;;;;;;;5134722;28;19996;-69
2023/02/18 14:15:47;;;;;;;;;;;;;;;;;;5134561;28;19947;-68
2023/02/18 14:18:13;;;;;;;;;;;;;;;;;;5134777;28;19949;-70
2023/02/18 14:20:39;;;;;;;;;;;;;;;;;;5134817;28;19956;-69
2023/02/18 14:23:05;;;;;;;;;;;;;;;;;;5134430;28;19982;-69
2023/02/18 14:25:30;;;;;;;;;;;;;;;;;;5134729;28;19953;-69
2023/02/18 14:27:56;;;;;;;;;;;;;;;;;;5134478;28;19954;-69
2023/02/18 14:30:22;;;;;;;;;;;;;;;;;;5134717;28;19950;-69
2023/02/18 14:32:48;;;;;;;;;;;;;;;;;;5134660;28;20395;-69
2023/02/18 14:35:14;;;;;;;;;;;;;;;;;;5134400;28;19961;-68
2023/02/18 14:37:40;;;;;;;;;;;;;;;;;;5134863;28;20421;-69
2023/02/18 14:40:06;;;;;;;;;;;;;;;;;;5115940;28;19953;-68
2023/02/18 14:42:32;;;;;;;;;;;;;;;;;;5134554;28;19950;-69
2023/02/18 14:44:57;;;;;;;;;;;;;;;;;;5134465;28;19974;-69
2023/02/18 14:47:23;;;;;;;;;;;;;;;;;;5134215;28;19955;-68
2023/02/18 14:49:49;;;;;;;;;;;;;;;;;;5134265;28;19999;-68
2023/02/18 14:52:15;;;;;;;;;;;;;;;;;;5134428;28;19957;-69
2023/02/18 14:54:41;;;;;;;;;;;;;;;;;;5137085;27;19943;-68
2023/02/18 14:57:07;;;;;;;;;;;;;;;;;;5138335;27;19947;-69
2023/02/18 14:59:33;;;;;;;;;;;;;;;;;;5137941;27;19955;-69
2023/02/18 15:01:59;;;;;;;;;;;;;;;;;;5137963;27;19951;-68
2023/02/18 15:04:25;;;;;;;;;;;;;;;;;;5138133;27;19970;-69
2023/02/18 15:06:50;;;;;;;;;;;;;;;;;;5137816;27;19945;-69
2023/02/18 15:09:17;;;;;;;;;;;;;;;;;;5137808;27;19950;-69
2023/02/18 15:11:43;;;;;;;;;;;;;;;;;;5117919;28;19973;-69
2023/02/18 15:14:09;;;;;;;;;;;;;;;;;;5117427;28;19967;-69
2023/02/18 15:16:35;;;;;;;;;;;;;;;;;;5117208;28;19943;-69
2023/02/18 15:19:01;;;;;;;;;;;;;;;;;;5117107;28;20038;-69
2023/02/18 15:21:27;;;;;;;;;;;;;;;;;;5117570;28;20354;-69
2023/02/18 15:23:53;;;;;;;;;;;;;;;;;;5116922;28;20048;-69
2023/02/18 15:26:19;;;;;;;;;;;;;;;;;;5116974;28;19951;-68
2023/02/18 15:28:45;;;;;;;;;;;;;;;;;;5116936;28;20044;-70
2023/02/18 15:31:12;;;;;;;;;;;;;;;;;;5117122;28;19986;-68
2023/02/18 15:33:38;;;;;;;;;;;;;;;;;;5116818;28;19951;-69
2023/02/18 15:36:04;;;;;;;;;;;;;;;;;;5116794;28;20474;-68
2023/02/18 15:38:30;;;;;;;;;;;;;;;;;;5116699;28;19981;-68
2023/02/18 15:40:55;;;;;;;;;;;;;;;;;;5116707;28;19996;-69
2023/02/18 15:43:21;;;;;;;;;;;;;;;;;;5116869;28;19978;-69
2023/02/18 15:45:47;;;;;;;;;;;;;;;;;;5116563;28;19951;-68
2023/02/18 15:48:13;;;;;;;;;;;;;;;;;;5116800;28;19998;-68
2023/02/18 15:50:39;;;;;;;;;;;;;;;;;;5116477;28;19946;-69
2023/02/18 15:53:05;;;;;;;;;;;;;;;;;;5116434;28;20036;-68
2023/02/18 15:55:31;;;;;;;;;;;;;;;;;;5116629;28;20088;-69
2023/02/18 15:57:57;;;;;;;;;;;;;;;;;;5116607;28;19979;-68
2023/02/18 16:00:23;;;;;;;;;;;;;;;;;;5116618;28;19952;-69
2023/02/18 16:02:50;;;;;;;;;;;;;;;;;;5116278;28;19951;-69
2023/02/18 16:05:16;;;;;;;;;;;;;;;;;;5116372;28;20327;-69
2023/02/18 16:07:43;;;;;;;;;;;;;;;;;;5116985;28;19987;-68
2023/02/18 16:10:09;;;;;;;;;;;;;;;;;;5123074;27;19986;-69
2023/02/18 16:12:34;;;;;;;;;;;;;;;;;;5136874;27;19950;-69
2023/02/18 16:15:00;;;;;;;;;;;;;;;;;;5136511;27;19966;-68
2023/02/18 16:17:26;;;;;;;;;;;;;;;;;;5136747;27;20008;-68
2023/02/18 16:19:52;;;;;;;;;;;;;;;;;;5136710;27;20420;-69
2023/02/18 16:22:18;;;;;;;;;;;;;;;;;;5136985;27;19951;-68
2023/02/18 16:24:48;;;;;;;;;;;;;;;;;;5136238;27;20032;-69
2023/02/18 16:27:14;;;;;;;;;;;;;;;;;;5137358;27;19977;-69
2023/02/18 16:29:40;;;;;;;;;;;;;;;;;;5136201;27;20366;-69
2023/02/18 16:32:05;;;;;;;;;;;;;;;;;;5136489;27;20038;-68
2023/02/18 16:34:31;;;;;;;;;;;;;;;;;;5136146;27;19973;-68
2023/02/18 16:39:42;;;;;;;;;;;;;;;;;;5136387;27;19953;-69